Time;durP1;ratioP1;P1;durP2;ratioP2;P2;SDS_P1;SDS_P2;PMS_P1;PMS_P2;Temp;Humidity;BMP_temperature;BMP_pressure;BME280_temperature;BME280_humidity;BME280_pressure;Samples;Min_cycle;Max_cycle;Signal;HPM_P1;HPM_P2
2021/08/02 00:00:13;;;;;;;73.80;40.10;;;;;;;19.35;84.13;99192.31;5075550;28;20079;-71
2021/08/02 00:02:50;;;;;;;71.03;39.15;;;;;;;19.37;84.67;99184.88;5093416;28;20044;-70
2021/08/02 00:05:18;;;;;;;66.60;38.10;;;;;;;19.45;84.78;99178.59;5093474;28;20044;-72
2021/08/02 00:07:50;;;;;;;57.53;34.03;;;;;;;19.46;84.28;99174.88;5093128;28;20075;-72
2021/08/02 00:10:16;;;;;;;63.05;35.42;;;;;;;19.47;83.84;99165.00;5093004;28;20052;-71
2021/08/02 00:12:46;;;;;;;38.42;25.60;;;;;;;19.46;82.32;99145.38;5092374;28;20038;-74
2021/08/02 00:15:14;;;;;;;56.45;33.75;;;;;;;19.44;82.87;99146.59;5093150;28;20043;-73
2021/08/02 00:17:41;;;;;;;48.92;28.67;;;;;;;19.40;82.37;99146.13;5092804;28;20067;-72
2021/08/02 00:20:13;;;;;;;46.05;27.48;;;;;;;19.38;82.21;99151.69;5074962;28;20048;-72
2021/08/02 00:22:40;;;;;;;43.47;26.88;;;;;;;19.40;82.35;99154.16;5075009;28;20036;-71
2021/08/02 00:25:06;;;;;;;43.15;25.00;;;;;;;19.41;81.59;99147.78;5093004;28;20044;-74
2021/08/02 00:27:33;;;;;;;37.28;25.23;;;;;;;19.46;81.17;99153.41;5092847;28;20040;-71
2021/08/02 00:29:59;;;;;;;40.92;24.67;;;;;;;19.52;80.93;99151.84;5093100;28;20051;-69
2021/08/02 00:32:25;;;;;;;26.23;14.85;;;;;;;19.51;79.00;99148.31;5074685;28;20078;-72
2021/08/02 00:34:51;;;;;;;67.70;42.10;;;;;;;19.62;80.33;99141.63;5092808;28;20501;-70
2021/08/02 00:37:53;;;;;;;46.78;27.25;;;;;;;19.64;81.34;99142.28;5074687;28;20082;-73
2021/08/02 00:40:49;;;;;;;39.67;23.85;;;;;;;19.60;81.53;99135.63;4990792;28;20499;-71
2021/08/02 00:43:36;;;;;;;34.88;22.52;;;;;;;19.56;80.78;99129.81;4990789;28;20053;-71
2021/08/02 00:46:03;;;;;;;35.70;22.90;;;;;;;19.55;80.90;99141.56;4990710;28;20092;-72
2021/08/02 00:48:33;;;;;;;42.47;22.00;;;;;;;19.55;81.56;99138.03;4974101;28;20069;-70
2021/08/02 00:51:02;;;;;;;36.63;22.25;;;;;;;19.53;81.43;99124.81;4990127;28;20137;-70
2021/08/02 00:53:28;;;;;;;38.47;23.33;;;;;;;19.54;82.03;99120.31;4973879;28;20042;-70
2021/08/02 00:56:03;;;;;;;47.45;25.88;;;;;;;19.63;82.23;99129.06;4990586;28;20136;-72
2021/08/02 00:58:31;;;;;;;48.85;29.15;;;;;;;19.62;82.42;99127.38;4990722;28;20066;-70
2021/08/02 01:00:57;;;;;;;50.72;30.05;;;;;;;19.62;82.41;99122.03;4973715;28;20077;-71
2021/08/02 01:03:31;;;;;;;45.42;26.25;;;;;;;19.63;82.36;99127.19;4974344;28;20507;-71
2021/08/02 01:05:59;;;;;;;48.47;29.60;;;;;;;19.48;82.22;99113.03;4990039;28;20104;-68
2021/08/02 01:08:29;;;;;;;55.67;30.02;;;;;;;19.39;82.87;99123.03;4990085;28;20054;-71
2021/08/02 01:11:00;;;;;;;51.03;26.38;;;;;;;19.37;82.55;99130.44;4974153;28;20476;-73
2021/08/02 01:13:29;;;;;;;42.90;27.13;;;;;;;19.42;82.72;99127.19;4973880;28;20058;-70
2021/08/02 01:15:59;;;;;;;50.20;28.52;;;;;;;19.41;82.78;99115.59;5008683;28;20060;-71
2021/08/02 01:18:26;;;;;;;44.50;27.02;;;;;;;19.37;82.89;99117.03;5070684;28;20245;-74
2021/08/02 01:20:53;;;;;;;48.90;28.00;;;;;;;19.34;82.83;99120.91;5071780;28;20129;-72
2021/08/02 01:23:21;;;;;;;48.50;29.30;;;;;;;19.38;83.04;99122.19;5072184;28;20059;-73
2021/08/02 01:25:56;;;;;;;39.10;22.98;;;;;;;19.41;82.26;99120.97;5069420;28;20056;-73
2021/08/02 01:28:22;;;;;;;40.83;24.15;;;;;;;19.46;81.86;99112.38;5071989;28;20048;-73
2021/08/02 01:30:59;;;;;;;46.00;26.90;;;;;;;19.51;82.30;99108.06;5070267;28;20053;-72
2021/08/02 01:33:32;;;;;;;49.38;27.88;;;;;;;19.52;82.86;99115.09;5070465;28;20060;-72
2021/08/02 01:36:16;;;;;;;40.67;24.58;;;;;;;19.50;82.48;99119.00;5071835;28;20060;-73
2021/08/02 01:38:51;;;;;;;40.65;25.02;;;;;;;19.54;82.26;99121.13;5069880;28;20556;-71
2021/08/02 01:41:20;;;;;;;37.60;22.77;;;;;;;19.61;81.98;99117.69;5053015;28;20044;-71
2021/08/02 01:43:48;;;;;;;39.67;23.25;;;;;;;19.68;81.60;99126.63;5069860;28;20497;-73
2021/08/02 01:46:21;;;;;;;38.90;22.77;;;;;;;19.67;81.51;99124.97;5070481;28;20048;-71
2021/08/02 01:49:22;;;;;;;42.13;24.40;;;;;;;19.67;81.74;99123.09;5053431;28;20378;-72
2021/08/02 01:51:51;;;;;;;43.40;24.90;;;;;;;19.67;81.68;99119.59;5056482;28;20056;-71
2021/08/02 01:54:27;;;;;;;47.95;28.13;;;;;;;19.60;82.11;99114.19;5054348;28;20074;-72
2021/08/02 01:57:02;;;;;;;41.30;25.30;;;;;;;19.60;82.32;99113.31;5071732;28;20040;-74
2021/08/02 01:59:45;;;;;;;47.10;26.95;;;;;;;19.60;82.24;99107.97;5070129;28;20506;-73
2021/08/02 02:02:15;;;;;;;39.78;24.05;;;;;;;19.56;82.28;99108.34;5036899;28;20055;-72
2021/08/02 02:05:07;;;;;;;51.28;26.23;;;;;;;19.56;82.50;99103.00;5032598;28;20037;-72
2021/08/02 02:07:46;;;;;;;46.95;27.23;;;;;;;19.54;82.65;99102.34;5052962;28;20052;-72
2021/08/02 02:10:27;;;;;;;45.88;28.38;;;;;;;19.52;82.90;99107.06;5055131;28;20041;-75
2021/08/02 02:12:54;;;;;;;45.30;28.70;;;;;;;19.52;82.84;99104.38;5053235;28;20044;-70
2021/08/02 02:15:20;;;;;;;45.97;26.77;;;;;;;19.55;83.45;99105.84;5053438;28;20048;-72
2021/08/02 02:17:47;;;;;;;27.40;18.08;;;;;;;19.58;81.56;99101.94;5071023;28;20416;-73
2021/08/02 02:20:14;;;;;;;31.38;18.38;;;;;;;19.66;81.35;99096.47;5036880;28;20048;-70
2021/08/02 02:22:42;;;;;;;45.38;27.23;;;;;;;19.69;81.71;99101.47;5071104;28;20082;-71
2021/08/02 02:25:10;;;;;;;37.53;24.27;;;;;;;19.67;82.21;99103.50;5036922;28;20036;-71
2021/08/02 02:27:40;;;;;;;43.10;27.05;;;;;;;19.61;82.64;99104.25;5070893;28;20044;-71
2021/08/02 02:30:09;;;;;;;39.58;26.58;;;;;;;19.49;82.59;99102.09;5053632;28;20512;-74
2021/08/02 02:32:54;;;;;;;48.25;28.63;;;;;;;19.36;82.74;99107.31;5071299;28;20060;-71
2021/08/02 02:35:21;;;;;;;44.53;28.45;;;;;;;19.27;83.00;99103.09;5036518;28;20497;-72
2021/08/02 02:37:47;;;;;;;49.88;29.05;;;;;;;19.15;83.29;99106.25;5074720;28;20462;-71
2021/08/02 02:40:14;;;;;;;45.47;28.55;;;;;;;19.11;83.38;99102.28;5074904;28;20044;-70
2021/08/02 02:42:42;;;;;;;45.58;28.80;;;;;;;19.10;83.52;99097.94;5056973;28;20123;-72
2021/08/02 02:45:14;;;;;;;48.25;29.38;;;;;;;19.11;83.62;99099.59;5057733;28;20048;-72
2021/08/02 02:47:42;;;;;;;44.65;26.38;;;;;;;19.14;83.46;99101.91;5073254;28;20383;-72
2021/08/02 02:50:09;;;;;;;42.83;26.90;;;;;;;19.21;83.08;99107.34;5056442;28;20045;-70
2021/08/02 02:52:35;;;;;;;46.13;26.83;;;;;;;19.33;82.94;99097.78;5067279;28;20079;-71
2021/08/02 02:55:03;;;;;;;41.58;25.63;;;;;;;19.45;82.39;99091.94;5076124;28;20036;-72
2021/08/02 02:57:30;;;;;;;43.30;26.45;;;;;;;19.50;81.50;99098.38;5060104;28;20043;-72
2021/08/02 02:59:56;;;;;;;39.50;24.13;;;;;;;19.54;81.55;99101.53;5094628;28;20044;-71
2021/08/02 03:02:23;;;;;;;31.17;19.90;;;;;;;19.58;80.84;99102.78;5076770;28;20075;-71
2021/08/02 03:04:53;;;;;;;39.67;23.92;;;;;;;19.67;80.50;99111.53;5076345;28;20205;-72
2021/08/02 03:07:21;;;;;;;35.80;21.85;;;;;;;19.75;79.95;99111.44;5052597;28;20537;-72
2021/08/02 03:09:48;;;;;;;30.60;18.92;;;;;;;19.81;78.92;99124.09;5075566;28;20089;-71
2021/08/02 03:12:15;;;;;;;32.33;20.92;;;;;;;19.97;78.98;99122.19;5056025;28;20093;-73
2021/08/02 03:14:41;;;;;;;32.80;19.73;;;;;;;20.06;78.06;99123.69;5073272;28;20490;-71
2021/08/02 03:17:08;;;;;;;37.90;21.88;;;;;;;20.17;79.39;99131.19;5092270;28;20032;-72
2021/08/02 03:19:35;;;;;;;55.65;31.95;;;;;;;20.22;79.39;99127.13;5076075;28;20042;-71
2021/08/02 03:22:10;;;;;;;55.13;32.70;;;;;;;20.23;78.67;99128.78;5094492;28;20134;-70
2021/08/02 03:24:47;;;;;;;30.05;19.05;;;;;;;20.16;77.50;99123.34;5059694;28;20051;-71
2021/08/02 03:27:42;;;;;;;31.50;19.73;;;;;;;20.24;78.11;99114.31;5076476;28;20126;-72
2021/08/02 03:30:08;;;;;;;31.20;19.85;;;;;;;20.32;78.00;99115.00;5091179;28;20086;-73
2021/08/02 03:32:35;;;;;;;29.88;18.58;;;;;;;20.36;77.21;99113.59;5093529;28;20490;-72
2021/08/02 03:35:04;;;;;;;28.17;18.15;;;;;;;20.34;76.93;99112.97;5076163;28;20104;-74
2021/08/02 03:37:30;;;;;;;29.50;17.08;;;;;;;20.45;76.47;99127.72;5076335;28;20516;-71
2021/08/02 03:39:57;;;;;;;34.00;20.40;;;;;;;20.58;76.81;99128.81;5076317;28;20055;-70
2021/08/02 03:42:23;;;;;;;29.90;19.23;;;;;;;20.76;76.64;99129.19;5075994;28;20048;-73
2021/08/02 03:44:49;;;;;;;26.05;16.48;;;;;;;20.85;74.28;99133.34;5076178;28;20044;-72
2021/08/02 03:47:19;;;;;;;65.00;33.50;;;;;;;20.88;73.80;99136.69;5093265;28;20040;-70
2021/08/02 03:49:45;;;;;;;29.08;16.42;;;;;;;20.89;73.02;99132.97;5075536;28;20047;-72
2021/08/02 03:52:12;;;;;;;30.67;18.03;;;;;;;20.98;74.05;99123.69;5075881;28;20058;-73
2021/08/02 03:54:37;;;;;;;34.55;19.65;;;;;;;21.13;73.97;99123.53;5093653;28;20473;-71
2021/08/02 03:57:04;;;;;;;29.10;18.40;;;;;;;21.17;73.84;99125.63;5093617;28;20036;-71
2021/08/02 03:59:30;;;;;;;27.70;18.00;;;;;;;21.27;73.04;99129.78;5075946;28;20436;-72
2021/08/02 04:01:56;;;;;;;30.55;17.98;;;;;;;21.45;72.44;99130.06;5093814;28;20281;-73
2021/08/02 04:04:22;;;;;;;28.27;16.70;;;;;;;21.58;72.01;99136.53;5093317;28;20040;-72
2021/08/02 04:06:48;;;;;;;23.05;15.25;;;;;;;21.63;71.16;99140.28;5093403;28;20503;-72
2021/08/02 04:09:15;;;;;;;26.33;16.85;;;;;;;21.76;71.29;99136.78;5093177;28;20431;-72
2021/08/02 04:11:42;;;;;;;34.28;17.35;;;;;;;21.87;71.27;99134.50;5075539;28;20101;-73
2021/08/02 04:14:08;;;;;;;;;;;;;;;21.98;70.94;99131.22;5093907;28;20044;-72
2021/08/02 04:16:36;;;;;;;31.17;18.17;;;;;;;22.05;71.30;99131.22;5093177;28;20345;-72
2021/08/02 04:19:02;;;;;;;31.33;17.90;;;;;;;22.19;70.68;99118.59;5093635;28;20101;-71
2021/08/02 04:21:28;;;;;;;31.02;17.20;;;;;;;22.28;70.22;99114.63;5093583;28;20300;-74
2021/08/02 04:23:54;;;;;;;26.52;18.02;;;;;;;22.43;69.76;99101.81;5093147;28;20118;-72
2021/08/02 04:26:20;;;;;;;27.85;17.02;;;;;;;23.20;67.41;99089.53;5093458;28;20036;-71
2021/08/02 04:28:47;;;;;;;27.33;16.40;;;;;;;24.12;64.71;99080.22;5092945;28;20126;-73
2021/08/02 04:31:12;;;;;;;27.15;16.02;;;;;;;24.98;61.80;99086.56;5093078;28;20054;-72
2021/08/02 04:33:39;;;;;;;30.83;16.60;;;;;;;25.32;60.74;99089.69;5092473;28;20048;-72
2021/08/02 04:36:05;;;;;;;22.48;15.40;;;;;;;25.74;59.25;99096.19;5093394;28;20067;-71
2021/08/02 04:38:31;;;;;;;21.98;15.27;;;;;;;26.57;57.56;99088.94;5092971;28;20079;-74
2021/08/02 04:40:57;;;;;;;26.77;16.35;;;;;;;27.19;55.48;99079.38;5092820;28;20063;-71
2021/08/02 04:43:23;;;;;;;26.60;16.50;;;;;;;27.74;53.38;99075.22;5093002;28;20123;-72
2021/08/02 04:45:50;;;;;;;26.17;17.02;;;;;;;27.81;53.77;99079.66;5092671;28;20047;-73
2021/08/02 04:48:16;;;;;;;23.27;15.82;;;;;;;28.70;52.23;99083.47;5092730;28;20044;-72
2021/08/02 04:50:43;;;;;;;24.70;16.05;;;;;;;28.92;51.20;99088.06;5092591;28;20131;-72
2021/08/02 04:53:10;;;;;;;23.27;15.38;;;;;;;28.20;52.65;99094.19;5092192;28;20679;-71
2021/08/02 04:55:35;;;;;;;21.33;15.50;;;;;;;27.93;52.85;99085.84;5092696;28;20066;-71
2021/08/02 04:58:01;;;;;;;23.40;15.93;;;;;;;27.82;53.15;99084.84;5092483;28;20763;-72
2021/08/02 05:00:27;;;;;;;21.85;16.48;;;;;;;28.09;52.77;99086.94;5092541;28;20048;-73
2021/08/02 05:02:53;;;;;;;25.08;16.38;;;;;;;29.45;50.46;99088.41;5092666;28;20101;-72
2021/08/02 05:05:19;;;;;;;24.23;16.25;;;;;;;30.25;47.96;99085.81;5074371;28;20492;-73
2021/08/02 05:07:45;;;;;;;23.73;16.23;;;;;;;30.03;47.59;99088.66;5073869;28;20192;-72
2021/08/02 05:10:11;;;;;;;21.00;16.45;;;;;;;29.51;49.50;99081.94;5092336;28;20047;-74
2021/08/02 05:12:37;;;;;;;21.27;15.83;;;;;;;30.26;47.55;99076.53;5092271;28;20092;-77
2021/08/02 05:15:05;;;;;;;23.15;15.85;;;;;;;30.26;47.40;99083.91;5092664;28;20282;-74
2021/08/02 05:17:31;;;;;;;24.15;17.23;;;;;;;30.12;47.00;99078.91;5092272;28;20050;-72
2021/08/02 05:19:56;;;;;;;24.85;17.42;;;;;;;30.25;46.92;99071.34;5092142;28;20048;-74
2021/08/02 05:22:22;;;;;;;22.05;16.42;;;;;;;30.31;46.91;99079.28;5092353;28;20055;-72
2021/08/02 05:24:48;;;;;;;23.27;16.00;;;;;;;30.46;46.77;99084.03;5092253;28;20040;-74
2021/08/02 05:27:14;;;;;;;21.77;16.10;;;;;;;30.51;46.33;99088.72;5074135;28;20101;-76
2021/08/02 05:29:39;;;;;;;21.92;16.00;;;;;;;31.07;45.51;99088.16;5092176;28;20048;-73
2021/08/02 05:32:08;;;;;;;23.70;15.50;;;;;;;31.84;43.62;99078.44;5091824;28;20040;-72
2021/08/02 05:34:34;;;;;;;22.48;14.73;;;;;;;31.87;42.67;99083.38;5092204;28;20092;-75
2021/08/02 05:37:00;;;;;;;21.10;15.03;;;;;;;32.40;41.95;99074.84;5074623;28;20415;-71
2021/08/02 05:39:26;;;;;;;28.47;15.93;;;;;;;32.76;41.40;99076.66;5091877;28;20044;-78
2021/08/02 05:41:51;;;;;;;18.43;14.87;;;;;;;33.17;40.21;99065.50;5091626;28;20044;-75
2021/08/02 05:44:17;;;;;;;20.00;15.13;;;;;;;33.19;40.51;99074.25;5092282;28;20044;-79
2021/08/02 05:46:43;;;;;;;19.13;14.77;;;;;;;33.22;39.81;99073.69;5091999;28;20528;-75
2021/08/02 05:49:10;;;;;;;21.60;14.80;;;;;;;33.07;39.47;99071.84;5091668;28;20052;-74
2021/08/02 05:51:35;;;;;;;20.00;14.27;;;;;;;32.19;41.62;99074.03;5091852;28;20372;-74
2021/08/02 05:54:02;;;;;;;22.70;15.70;;;;;;;32.38;41.42;99066.91;5091787;28;20135;-73
2021/08/02 05:56:28;;;;;;;21.73;15.90;;;;;;;32.97;40.89;99072.72;5091982;28;20293;-82
2021/08/02 05:58:54;;;;;;;24.23;16.47;;;;;;;33.03;39.81;99071.59;5091897;28;20129;-74
2021/08/02 06:01:20;;;;;;;21.27;15.27;;;;;;;33.42;38.85;99069.22;5091655;28;20044;-74
2021/08/02 06:03:45;;;;;;;19.00;14.63;;;;;;;34.25;37.58;99061.91;5091535;28;20413;-78
2021/08/02 06:06:11;;;;;;;25.50;15.33;;;;;;;35.09;36.15;99068.09;5091538;28;20040;-73
2021/08/02 06:08:38;;;;;;;18.73;13.80;;;;;;;34.33;36.36;99069.53;5091279;28;20282;-74
2021/08/02 06:11:04;;;;;;;20.80;14.57;;;;;;;33.93;36.98;99066.06;5093258;28;20122;-73
2021/08/02 06:13:30;;;;;;;19.30;15.00;;;;;;;33.80;37.04;99058.50;5096082;28;20147;-78
2021/08/02 06:15:56;;;;;;;20.38;15.18;;;;;;;32.80;38.89;99056.66;5095854;28;20044;-76
2021/08/02 06:18:22;;;;;;;28.47;20.50;;;;;;;32.74;39.02;99047.63;5095671;28;20059;-76
2021/08/02 06:20:48;;;;;;;19.00;14.07;;;;;;;33.44;36.92;99054.09;5095790;28;20123;-74
2021/08/02 06:23:13;;;;;;;18.63;14.43;;;;;;;34.52;36.13;99055.06;5095569;28;20054;-77
2021/08/02 06:25:39;;;;;;;19.67;14.57;;;;;;;34.34;35.34;99053.84;5095629;28;20086;-73
2021/08/02 06:28:05;;;;;;;20.13;15.30;;;;;;;32.77;38.27;99045.44;5095844;28;20473;-73
2021/08/02 06:30:31;;;;;;;19.23;14.93;;;;;;;33.08;37.90;99048.03;5095657;28;20409;-73
2021/08/02 06:32:56;;;;;;;20.50;15.37;;;;;;;32.72;38.71;99044.31;5095232;28;20127;-74
2021/08/02 06:35:22;;;;;;;19.83;14.80;;;;;;;33.11;38.48;99047.44;5095381;28;20524;-74
2021/08/02 06:37:48;;;;;;;21.00;15.43;;;;;;;32.00;39.84;99060.94;5095158;28;20048;-74
2021/08/02 06:40:15;;;;;;;25.07;16.50;;;;;;;30.10;44.43;99064.72;5095143;28;20066;-73
2021/08/02 06:42:41;;;;;;;23.23;16.30;;;;;;;29.45;46.42;99070.16;5094977;28;20412;-73
2021/08/02 06:45:08;;;;;;;24.83;17.27;;;;;;;28.72;48.59;99067.69;5095421;28;20050;-75
2021/08/02 06:47:34;;;;;;;26.98;16.88;;;;;;;28.05;50.40;99067.56;5094995;28;20043;-75
2021/08/02 06:50:00;;;;;;;28.07;17.60;;;;;;;27.57;51.82;99063.50;5095074;28;20058;-73
2021/08/02 06:52:26;;;;;;;25.52;17.67;;;;;;;27.35;52.30;99071.50;5095264;28;20052;-75
2021/08/02 06:54:52;;;;;;;28.00;18.23;;;;;;;26.98;53.86;99077.31;5095313;28;20036;-76
2021/08/02 06:57:19;;;;;;;26.35;17.52;;;;;;;26.81;54.37;99078.06;5095402;28;20436;-74
2021/08/02 06:59:45;;;;;;;27.88;18.30;;;;;;;26.26;56.32;99082.84;5094830;28;20130;-76
2021/08/02 07:02:10;;;;;;;29.35;17.90;;;;;;;26.08;56.88;99082.94;5094845;28;20502;-73
2021/08/02 07:04:36;;;;;;;30.77;18.38;;;;;;;25.82;58.24;99076.88;5095055;28;20044;-73
2021/08/02 07:07:02;;;;;;;28.55;17.90;;;;;;;25.66;58.63;99084.63;5094577;28;20040;-73
2021/08/02 07:09:28;;;;;;;29.05;18.83;;;;;;;25.55;59.14;99087.31;5094485;28;20060;-74
2021/08/02 07:11:54;;;;;;;28.25;18.00;;;;;;;25.34;59.79;99089.44;5094722;28;20135;-75
2021/08/02 07:14:20;;;;;;;27.17;18.52;;;;;;;25.26;60.55;99085.19;5095032;28;20445;-75
2021/08/02 07:16:45;;;;;;;28.92;20.10;;;;;;;25.20;62.13;99086.09;5094690;28;20043;-74
2021/08/02 07:19:11;;;;;;;26.75;18.70;;;;;;;25.26;61.50;99085.19;5094936;28;20044;-73
2021/08/02 07:21:37;;;;;;;29.05;18.40;;;;;;;25.09;62.18;99079.56;5094499;28;20078;-74
2021/08/02 07:24:03;;;;;;;52.35;29.52;;;;;;;24.98;62.53;99078.44;5093648;28;20473;-75
2021/08/02 07:26:29;;;;;;;30.75;19.38;;;;;;;24.69;63.19;99086.28;5094312;28;20501;-74
2021/08/02 07:28:58;;;;;;;33.03;19.95;;;;;;;24.34;64.94;99089.56;5094091;28;20127;-74
2021/08/02 07:31:26;;;;;;;29.92;20.80;;;;;;;24.25;65.42;99080.09;5093858;28;20105;-77
2021/08/02 07:33:52;;;;;;;33.03;20.92;;;;;;;24.15;65.96;99075.19;5094025;28;20048;-77
2021/08/02 07:36:18;;;;;;;32.20;20.08;;;;;;;24.00;66.04;99072.81;5094068;28;20040;-75
2021/08/02 07:38:44;;;;;;;33.67;20.33;;;;;;;24.04;66.45;99065.94;5094535;28;20040;-75
2021/08/02 07:41:11;;;;;;;35.55;20.65;;;;;;;23.91;66.43;99063.31;5094603;28;20135;-74
2021/08/02 07:43:37;;;;;;;35.22;23.10;;;;;;;23.93;66.86;99063.94;5094429;28;20055;-77
2021/08/02 07:46:03;;;;;;;31.25;21.05;;;;;;;23.86;66.99;99063.97;5094656;28;20122;-79
2021/08/02 07:48:30;;;;;;;37.70;21.58;;;;;;;23.66;67.42;99064.13;5094236;28;20131;-72
2021/08/02 07:50:56;;;;;;;37.60;21.60;;;;;;;23.62;68.01;99062.09;5094127;28;20725;-74
2021/08/02 07:53:22;;;;;;;37.70;22.60;;;;;;;23.65;68.35;99040.88;5094050;28;20130;-73
2021/08/02 07:55:47;;;;;;;34.95;21.63;;;;;;;23.63;68.57;99040.28;5094323;28;20546;-79
2021/08/02 07:58:14;;;;;;;41.58;24.13;;;;;;;23.59;70.18;99047.16;5094308;28;20048;-74
2021/08/02 08:00:40;;;;;;;130.48;67.20;;;;;;;23.40;69.38;99068.69;5094015;28;20457;-75
2021/08/02 08:03:07;;;;;;;36.25;23.85;;;;;;;23.23;70.02;99051.34;5093640;28;20055;-75
2021/08/02 08:05:33;;;;;;;38.63;23.58;;;;;;;23.19;71.29;99028.53;5093787;28;20066;-74
2021/08/02 08:07:58;;;;;;;38.88;23.77;;;;;;;23.47;70.10;99024.63;5093356;28;20059;-78
2021/08/02 08:10:26;;;;;;;41.03;23.52;;;;;;;23.70;69.78;98984.34;5093748;28;20047;-78
2021/08/02 08:12:52;;;;;;;45.03;23.52;;;;;;;23.77;69.26;98959.16;5075270;28;20044;-73
2021/08/02 08:15:20;;;;;;;33.75;22.50;;;;;;;24.13;67.75;98960.28;5093613;28;20577;-75
2021/08/02 08:17:45;;;;;;;35.53;22.67;;;;;;;24.75;66.18;98953.91;5093166;28;20059;-73
2021/08/02 08:20:13;;;;;;;33.45;21.73;;;;;;;27.37;59.24;98949.88;5093691;28;20044;-78
2021/08/02 08:22:39;;;;;;;29.20;21.05;;;;;;;29.20;53.93;98938.06;5093682;28;20047;-79
2021/08/02 08:25:06;;;;;;;32.17;20.15;;;;;;;30.37;49.95;98931.97;5093849;28;20051;-75
2021/08/02 08:27:32;;;;;;;30.33;18.55;;;;;;;31.34;47.42;98928.66;5093229;28;20393;-77
2021/08/02 08:29:58;;;;;;;26.40;18.23;;;;;;;32.51;44.08;98925.88;5058326;28;20059;-78
2021/08/02 08:32:24;;;;;;;38.07;20.10;;;;;;;33.46;41.97;98942.25;5092621;28;20051;-81
2021/08/02 08:34:50;;;;;;;36.20;22.77;;;;;;;34.19;40.88;98934.06;5092572;28;20044;-79
2021/08/02 15:12:45;;;;;;;31.27;18.00;;;;;;;29.18;47.52;98439.13;5094361;28;20146;-75
2021/08/02 15:15:14;;;;;;;29.58;17.33;;;;;;;29.17;46.53;98442.94;5094388;28;20139;-81
2021/08/02 15:17:48;;;;;;;25.38;17.30;;;;;;;29.20;45.83;98431.50;5093939;28;20044;-78
2021/08/02 15:20:23;;;;;;;26.80;16.63;;;;;;;29.24;44.43;98436.41;5083893;28;20039;-75
2021/08/02 15:22:50;;;;;;;24.42;17.20;;;;;;;29.27;44.10;98444.03;5075181;28;20040;-76
2021/08/02 15:25:20;;;;;;;29.23;17.05;;;;;;;29.30;43.74;98440.81;5100337;28;20409;-76
2021/08/02 15:27:49;;;;;;;27.63;16.58;;;;;;;29.30;43.38;98436.16;5094922;28;20457;-75
2021/08/02 15:30:15;;;;;;;24.30;17.02;;;;;;;29.29;43.12;98439.16;5093072;28;20058;-77
2021/08/02 15:32:45;;;;;;;26.27;16.35;;;;;;;29.24;42.92;98441.88;5094552;28;20165;-80
2021/08/02 15:35:13;;;;;;;28.73;17.80;;;;;;;29.24;43.07;98436.41;5093331;28;20076;-76
2021/08/02 15:37:40;;;;;;;30.85;18.05;;;;;;;29.20;43.07;98442.41;5076168;28;20634;-79
2021/08/02 15:40:21;;;;;;;28.23;18.40;;;;;;;29.16;42.52;98441.31;5094765;28;20706;-78
2021/08/02 15:42:47;;;;;;;27.90;18.17;;;;;;;29.13;42.99;98436.38;5085817;28;20043;-79
2021/08/02 15:45:15;;;;;;;32.00;18.33;;;;;;;29.09;43.18;98429.88;5102786;28;20032;-74
2021/08/02 15:47:43;;;;;;;29.45;17.33;;;;;;;29.06;43.53;98427.69;5113648;28;20492;-74
2021/08/02 15:50:10;;;;;;;28.75;18.55;;;;;;;29.01;43.50;98427.66;5090105;28;20047;-76
2021/08/02 15:53:00;;;;;;;31.58;18.17;;;;;;;28.97;43.42;98423.84;5093111;28;20122;-79
2021/08/02 15:55:26;;;;;;;53.97;33.40;;;;;;;28.93;43.43;98420.06;5074886;28;20135;-79
2021/08/02 15:57:58;;;;;;;28.27;18.88;;;;;;;28.89;43.60;98419.78;5092990;28;20040;-77
2021/08/02 16:00:26;;;;;;;29.33;18.27;;;;;;;28.85;43.53;98403.16;5074536;28;20497;-78
2021/08/02 16:03:06;;;;;;;26.42;18.20;;;;;;;28.83;43.61;98410.75;5075661;28;20417;-77
2021/08/02 16:05:33;;;;;;;27.33;17.65;;;;;;;28.79;43.69;98398.78;5094029;28;20405;-80
2021/08/02 16:08:04;;;;;;;29.20;19.70;;;;;;;28.77;43.88;98395.50;5093532;28;20048;-77
2021/08/02 16:10:35;;;;;;;29.58;18.23;;;;;;;28.72;43.72;98395.50;5075718;28;20448;-75
2021/08/02 16:13:02;;;;;;;29.83;19.05;;;;;;;28.68;43.69;98392.50;5093307;28;20052;-75
2021/08/02 16:15:28;;;;;;;29.83;18.63;;;;;;;28.64;43.82;98391.38;5093699;28;20040;-80
2021/08/02 16:17:55;;;;;;;32.90;20.53;;;;;;;28.60;43.48;98394.91;5093479;28;20055;-76
2021/08/02 16:20:24;;;;;;;32.53;19.45;;;;;;;28.55;43.54;98399.25;5093422;28;20040;-77
2021/08/02 16:22:50;;;;;;;32.45;19.13;;;;;;;28.51;43.60;98391.91;5075033;28;20436;-75
2021/08/02 16:25:17;;;;;;;33.28;20.27;;;;;;;28.51;43.34;98392.72;5093323;28;20032;-77
2021/08/02 16:27:44;;;;;;;33.30;19.75;;;;;;;28.49;43.27;98392.16;5093644;28;20438;-77
2021/08/02 16:30:12;;;;;;;32.45;20.75;;;;;;;28.44;43.29;98397.59;5093437;28;20044;-77
2021/08/02 16:32:38;;;;;;;31.83;18.50;;;;;;;28.44;43.17;98391.31;5093507;28;20052;-76
2021/08/02 16:35:06;;;;;;;29.58;18.55;;;;;;;28.42;43.08;98380.72;5093182;28;20047;-76
2021/08/02 16:37:32;;;;;;;34.65;18.75;;;;;;;28.42;43.29;98386.16;5074908;28;20528;-77
2021/08/02 16:39:58;;;;;;;32.13;18.77;;;;;;;28.38;43.33;98388.59;5093167;28;20051;-79
2021/08/02 16:42:24;;;;;;;29.52;18.15;;;;;;;28.36;43.27;98384.50;5093330;28;20071;-80
2021/08/02 16:44:49;;;;;;;30.55;18.85;;;;;;;28.31;43.09;98377.16;5093242;28;20039;-77
2021/08/02 16:47:16;;;;;;;32.70;19.30;;;;;;;28.28;43.64;98382.31;5074810;28;20185;-77
2021/08/02 16:49:43;;;;;;;33.05;18.98;;;;;;;28.22;43.71;98379.56;5074790;28;20036;-78
2021/08/02 16:52:09;;;;;;;40.22;19.45;;;;;;;28.16;43.61;98380.63;5092421;28;20043;-78
2021/08/02 16:54:35;;;;;;;122.50;72.30;;;;;;;28.14;43.25;98371.09;5092066;28;20098;-76
2021/08/02 16:57:01;;;;;;;31.77;19.27;;;;;;;28.10;43.99;98370.81;5092595;28;20128;-76
2021/08/02 16:59:27;;;;;;;31.20;19.55;;;;;;;27.99;44.07;98369.94;5092426;28;20071;-81
2021/08/02 17:01:53;;;;;;;35.75;20.15;;;;;;;27.88;44.67;98369.06;5093078;28;20481;-74
2021/08/02 17:04:22;;;;;;;35.47;19.77;;;;;;;27.76;45.62;98373.91;5092775;28;20032;-76
2021/08/02 17:06:48;;;;;;;33.22;19.30;;;;;;;27.68;45.49;98379.84;5092569;28;20048;-76
2021/08/02 17:09:13;;;;;;;34.25;20.73;;;;;;;27.61;45.95;98380.06;5092136;28;20046;-75
2021/08/02 17:11:39;;;;;;;34.05;20.70;;;;;;;27.56;45.71;98378.13;5092610;28;20519;-76
2021/08/02 17:14:06;;;;;;;36.00;20.30;;;;;;;27.54;45.71;98380.31;5092701;28;20492;-77
2021/08/02 17:16:32;;;;;;;40.45;22.73;;;;;;;27.49;45.51;98387.59;5092427;28;20044;-77
2021/08/02 17:18:58;;;;;;;40.92;22.67;;;;;;;27.40;45.61;98388.09;5092756;28;20538;-73
2021/08/02 17:21:25;;;;;;;34.43;21.33;;;;;;;27.31;45.79;98380.66;5092416;28;20496;-75
2021/08/02 17:23:51;;;;;;;36.47;21.10;;;;;;;27.25;46.42;98387.94;5092461;28;20115;-75
2021/08/02 17:26:18;;;;;;;32.05;21.05;;;;;;;27.22;46.23;98389.28;5092358;28;20140;-77
2021/08/02 17:28:44;;;;;;;30.17;19.90;;;;;;;27.17;46.65;98393.84;5074504;28;20048;-81
2021/08/02 17:31:10;;;;;;;36.00;20.35;;;;;;;27.11;47.04;98399.22;5091889;28;20055;-76
2021/08/02 17:33:36;;;;;;;33.05;19.17;;;;;;;27.04;47.34;98398.63;5092519;28;20044;-76
2021/08/02 17:36:03;;;;;;;33.20;20.27;;;;;;;26.99;48.15;98403.19;5092016;28;20044;-78
2021/08/02 17:38:28;;;;;;;38.83;23.00;;;;;;;26.91;48.63;98401.75;5092394;28;20044;-75
2021/08/02 17:40:54;;;;;;;35.42;20.38;;;;;;;26.84;48.34;98404.66;5092294;28;20127;-76
2021/08/02 17:43:21;;;;;;;32.17;20.52;;;;;;;26.77;49.13;98404.09;5092269;28;20130;-78
2021/08/02 17:45:47;;;;;;;34.20;20.88;;;;;;;26.71;49.10;98410.50;5074197;28;20044;-77
2021/08/02 17:48:13;;;;;;;31.77;20.52;;;;;;;26.65;49.47;98404.19;5092112;28;20051;-77
2021/08/02 17:50:39;;;;;;;37.13;22.00;;;;;;;26.60;50.24;98413.09;5092567;28;20040;-77
2021/08/02 17:53:05;;;;;;;38.47;26.02;;;;;;;26.56;50.26;98411.16;5091842;28;20051;-75
2021/08/02 17:55:31;;;;;;;38.70;21.80;;;;;;;26.51;50.58;98409.19;5092384;28;20044;-76